Time;durP1;ratioP1;P1;durP2;ratioP2;P2;SDS_P1;SDS_P2;PMS_P1;PMS_P2;Temp;Humidity;BMP_temperature;BMP_pressure;BME280_temperature;BME280_humidity;BME280_pressure;Samples;Min_cycle;Max_cycle;Signal;HPM_P1;HPM_P2
2021/12/28 00:01:21;;;;;;;11.73;4.63;;;;;;;-14.81;67.58;99953.09;4867434;29;20103;-87
2021/12/28 00:03:47;;;;;;;5.07;3.50;;;;;;;-14.81;67.42;99958.22;4876971;29;20060;-89
2021/12/28 00:06:14;;;;;;;7.72;5.00;;;;;;;-14.86;67.30;99954.63;4902859;29;20053;-86
2021/12/28 00:08:40;;;;;;;8.35;4.60;;;;;;;-14.97;67.04;99952.63;4888284;29;20048;-90
2021/12/28 00:11:06;;;;;;;13.57;5.38;;;;;;;-14.97;67.31;99951.72;4883228;29;20048;-92
2021/12/28 00:13:33;;;;;;;7.70;4.68;;;;;;;-14.94;67.77;99960.38;4897955;29;20044;-90
2021/12/28 00:18:32;;;;;;;8.25;4.93;;;;;;;-15.02;67.55;99966.97;4906689;29;20143;-90
2021/12/28 00:20:59;;;;;;;5.03;3.53;;;;;;;-15.01;67.34;99970.41;4882309;29;20397;-90
2021/12/28 00:23:33;;;;;;;10.43;5.22;;;;;;;-15.08;66.86;99979.63;4866013;29;20052;-89
2021/12/28 00:25:59;;;;;;;15.10;6.18;;;;;;;-15.13;67.35;99973.44;4854682;29;20040;-90
2021/12/28 00:28:25;;;;;;;11.20;6.00;;;;;;;-15.18;67.19;99983.56;4881986;29;20505;-90
2021/12/28 00:30:51;;;;;;;7.90;4.70;;;;;;;-15.14;67.34;99988.78;4897035;29;20420;-89
2021/12/28 00:33:19;;;;;;;9.95;5.85;;;;;;;-15.30;67.05;99987.41;4881447;29;20450;-89
2021/12/28 00:35:45;;;;;;;11.23;5.63;;;;;;;-15.36;66.71;99982.06;4866692;29;20049;-89
2021/12/28 00:38:14;;;;;;;15.32;5.45;;;;;;;-15.33;67.35;99989.88;4898175;29;20107;-89
2021/12/28 00:40:40;;;;;;;9.32;6.25;;;;;;;-15.34;66.98;99986.44;4897201;29;20084;-90
2021/12/28 00:43:06;;;;;;;10.23;4.85;;;;;;;-15.44;67.09;99995.50;4898391;29;20036;-89
2021/12/28 00:45:32;;;;;;;12.80;6.47;;;;;;;-15.56;67.07;99986.53;4866228;29;20045;-87
2021/12/28 00:47:58;;;;;;;9.10;5.30;;;;;;;-15.51;67.01;99982.44;4897074;29;20052;-88
2021/12/28 00:50:25;;;;;;;6.10;4.07;;;;;;;-15.54;66.84;99977.19;4881084;29;20049;-89
2021/12/28 00:52:51;;;;;;;9.55;5.93;;;;;;;-15.60;67.11;99972.75;4896782;29;20041;-88
2021/12/28 00:55:18;;;;;;;10.20;5.68;;;;;;;-15.64;67.38;99981.16;4896698;29;20045;-88
2021/12/28 00:57:44;;;;;;;7.85;4.45;;;;;;;-15.70;67.40;99976.69;4835563;29;20515;-88
2021/12/28 01:00:12;;;;;;;8.55;5.93;;;;;;;-15.65;67.37;99989.66;4897767;29;20102;-89
2021/12/28 01:02:38;;;;;;;8.85;4.38;;;;;;;-15.61;67.41;99990.59;4881733;29;20064;-88
2021/12/28 01:05:05;;;;;;;10.02;4.53;;;;;;;-15.69;67.34;99977.56;4880998;29;20045;-89
2021/12/28 01:07:31;;;;;;;10.18;4.45;;;;;;;-15.66;67.45;99993.06;4897252;29;20048;-88
2021/12/28 01:09:57;;;;;;;10.00;4.68;;;;;;;-15.68;67.17;99998.13;4896584;29;20064;-87
2021/12/28 01:12:23;;;;;;;6.97;4.75;;;;;;;-15.76;66.84;99986.72;4896351;29;20139;-90
2021/12/28 01:14:49;;;;;;;7.68;4.55;;;;;;;-15.73;66.82;100001.34;4868464;29;20060;-88
2021/12/28 01:17:15;;;;;;;4.40;3.38;;;;;;;-15.80;67.29;100012.19;4899872;29;20051;-90
2021/12/28 01:19:42;;;;;;;7.03;4.88;;;;;;;-15.79;67.00;99996.03;4916836;29;20064;-90
2021/12/28 01:22:08;;;;;;;9.02;5.18;;;;;;;-15.88;66.90;99991.44;4884140;29;20040;-90
2021/12/28 01:24:34;;;;;;;8.15;4.32;;;;;;;-15.81;67.04;99992.53;4886545;29;20117;-88
2021/12/28 01:27:00;;;;;;;9.20;5.43;;;;;;;-15.85;66.76;100006.03;4869759;29;20047;-87
2021/12/28 01:29:26;;;;;;;10.43;4.95;;;;;;;-15.98;67.08;99987.69;4886441;29;20054;-91
2021/12/28 01:31:52;;;;;;;9.45;5.18;;;;;;;-16.01;66.88;99985.00;4857832;29;20146;-89
2021/12/28 01:34:18;;;;;;;14.27;5.80;;;;;;;-15.93;66.92;100008.31;4871479;29;20544;-87
2021/12/28 01:36:44;;;;;;;10.80;4.57;;;;;;;-15.96;66.52;100009.06;4887446;29;20087;-88
2021/12/28 01:39:11;;;;;;;10.00;5.50;;;;;;;-16.02;66.75;100003.75;4910303;29;20159;-87
2021/12/28 01:41:37;;;;;;;7.57;4.32;;;;;;;-16.04;66.93;100005.38;4934929;29;20055;-86
2021/12/28 01:44:05;;;;;;;6.60;3.92;;;;;;;-16.09;66.69;100006.91;4928259;29;20143;-87
2021/12/28 01:46:32;;;;;;;8.97;6.00;;;;;;;-16.20;66.41;99992.84;4875278;29;20044;-87
2021/12/28 01:48:59;;;;;;;10.32;5.22;;;;;;;-16.28;66.73;99994.22;4907185;29;20134;-88
2021/12/28 01:51:25;;;;;;;10.57;4.50;;;;;;;-16.39;66.87;99996.41;4856829;29;20042;-87
2021/12/28 01:53:54;;;;;;;12.00;5.07;;;;;;;-16.47;67.12;100000.31;4919616;29;20044;-88
2021/12/28 01:56:22;;;;;;;5.50;3.72;;;;;;;-16.39;67.24;100010.84;4887477;29;20051;-88
2021/12/28 01:58:49;;;;;;;6.88;4.03;;;;;;;-16.36;67.16;100005.84;4889630;29;20068;-89
2021/12/28 02:01:15;;;;;;;5.53;4.18;;;;;;;-16.42;66.79;100003.94;4888029;29;20151;-89
2021/12/28 02:03:44;;;;;;;4.93;3.42;;;;;;;-16.47;67.01;100008.91;4888207;29;20080;-90
2021/12/28 02:06:10;;;;;;;13.70;5.47;;;;;;;-16.46;67.11;100015.75;4872217;29;20137;-88
2021/12/28 02:08:36;;;;;;;9.70;5.57;;;;;;;-16.51;67.29;100004.50;4904873;29;20052;-92
2021/12/28 02:11:03;;;;;;;10.52;4.60;;;;;;;-16.48;66.91;100013.94;4907952;29;20083;-91
2021/12/28 02:13:29;;;;;;;9.35;4.88;;;;;;;-16.54;66.97;99996.69;4906058;29;20044;-90
2021/12/28 02:15:56;;;;;;;10.38;6.45;;;;;;;-16.54;67.26;100006.91;4869551;29;20056;-91
2021/12/28 02:18:22;;;;;;;9.00;4.50;;;;;;;-16.64;67.84;100012.50;4916040;29;20500;-90
2021/12/28 02:20:49;;;;;;;9.57;4.78;;;;;;;-16.68;68.36;100018.28;4885150;29;20115;-90
2021/12/28 02:23:15;;;;;;;8.68;5.35;;;;;;;-16.71;68.50;100015.63;4903853;29;20068;-89
2021/12/28 02:25:41;;;;;;;25.73;6.72;;;;;;;-16.71;69.07;100028.41;4905579;29;20060;-89
2021/12/28 02:28:08;;;;;;;11.88;5.38;;;;;;;-16.65;69.22;100036.34;4884913;29;20135;-90
2021/12/28 02:30:34;;;;;;;7.25;4.00;;;;;;;-16.59;69.56;100028.88;4855722;29;20073;-89
2021/12/28 02:33:00;;;;;;;5.35;4.22;;;;;;;-16.51;69.60;100027.50;4853410;29;20440;-89
2021/12/28 02:35:27;;;;;;;6.68;3.53;;;;;;;-16.50;69.39;100028.38;4883983;29;20053;-88
2021/12/28 02:37:53;;;;;;;8.35;4.65;;;;;;;-16.52;69.64;100028.31;4872189;29;20075;-89
2021/12/28 02:40:21;;;;;;;6.25;4.10;;;;;;;-16.50;69.35;100016.47;4889201;29;20052;-89
2021/12/28 02:42:47;;;;;;;7.97;4.63;;;;;;;-16.37;68.43;100024.59;4902935;29;20045;-89
2021/12/28 02:45:16;;;;;;;5.47;3.97;;;;;;;-16.35;68.59;100020.41;4872095;29;20397;-91
2021/12/28 02:47:43;;;;;;;10.47;5.13;;;;;;;-16.23;68.07;100028.56;4870682;29;20052;-91
2021/12/28 02:50:13;;;;;;;7.80;4.30;;;;;;;-16.20;67.98;100026.13;4886773;29;20123;-89
2021/12/28 02:52:40;;;;;;;6.80;3.83;;;;;;;-16.19;67.87;100015.06;4888706;29;20044;-88
2021/12/28 02:55:08;;;;;;;8.40;5.15;;;;;;;-16.14;67.98;100013.53;4865199;29;20168;-88
2021/12/28 02:57:34;;;;;;;10.25;5.03;;;;;;;-16.10;67.99;100015.38;4907507;29;20108;-86
2021/12/28 02:59:59;;;;;;;13.50;6.43;;;;;;;-16.00;67.27;100020.03;4922674;29;20057;-88
2021/12/28 03:02:25;;;;;;;6.07;4.47;;;;;;;-15.86;67.22;100015.41;4921484;29;20061;-86
2021/12/28 03:04:51;;;;;;;12.20;6.13;;;;;;;-15.85;67.00;100017.16;4863034;29;20136;-85
2021/12/28 03:07:17;;;;;;;3.97;3.10;;;;;;;-15.81;66.60;100020.69;4868099;29;20048;-86
2021/12/28 03:09:44;;;;;;;13.90;6.35;;;;;;;-15.75;66.38;100019.22;4868248;29;20076;-86
2021/12/28 03:12:10;;;;;;;6.53;3.88;;;;;;;-15.69;66.24;100018.56;4899111;29;20056;-88
2021/12/28 03:14:36;;;;;;;12.60;6.57;;;;;;;-15.68;66.02;100012.66;4903166;29;20048;-89
2021/12/28 03:17:04;;;;;;;11.02;6.22;;;;;;;-15.76;65.73;100019.16;4902146;29;20052;-88
2021/12/28 03:19:30;;;;;;;8.82;4.63;;;;;;;-15.85;65.40;100021.41;4903194;29;20043;-88
2021/12/28 03:21:59;;;;;;;13.30;6.30;;;;;;;-15.82;66.08;100042.00;4887476;29;20044;-88
2021/12/28 03:24:26;;;;;;;7.70;4.32;;;;;;;-15.98;65.67;100023.53;4887654;29;20043;-88
2021/12/28 03:26:52;;;;;;;13.80;6.85;;;;;;;-15.93;65.72;100049.31;4855762;29;20048;-89
2021/12/28 03:29:20;;;;;;;6.93;4.47;;;;;;;-15.89;66.27;100040.91;4863168;29;20113;-88
2021/12/28 03:31:47;;;;;;;7.30;4.45;;;;;;;-15.88;66.72;100047.78;4940691;29;20079;-88
2021/12/28 03:34:12;;;;;;;9.00;4.72;;;;;;;-15.79;66.74;100047.25;4911837;29;20043;-89
2021/12/28 03:36:41;;;;;;;13.10;6.15;;;;;;;-15.62;66.63;100041.00;4886553;29;20938;-89
2021/12/28 03:39:07;;;;;;;9.57;5.40;;;;;;;-15.54;66.43;100042.13;4902360;29;20040;-91
2021/12/28 03:41:34;;;;;;;8.35;5.78;;;;;;;-15.46;66.24;100043.25;4901769;29;20059;-87
2021/12/28 03:44:00;;;;;;;12.32;6.50;;;;;;;-15.38;66.13;100041.00;4871847;29;20052;-88
2021/12/28 03:46:26;;;;;;;8.95;5.38;;;;;;;-15.36;66.27;100038.47;4854898;29;20071;-91
2021/12/28 03:48:53;;;;;;;15.15;7.13;;;;;;;-15.41;66.61;100028.06;4918389;29;20497;-90
2021/12/28 03:51:19;;;;;;;15.45;7.28;;;;;;;-15.35;66.58;100042.78;4917003;29;20071;-90
2021/12/28 03:53:46;;;;;;;13.30;6.35;;;;;;;-15.21;67.01;100060.38;4854109;29;20056;-90
2021/12/28 03:56:12;;;;;;;14.52;4.82;;;;;;;-15.24;66.60;100044.00;4885139;29;20508;-87
2021/12/28 03:58:39;;;;;;;12.10;5.47;;;;;;;-15.18;66.78;100060.47;4884940;29;20208;-84
2021/12/28 04:01:05;;;;;;;4.85;4.00;;;;;;;-15.12;67.32;100049.53;4900888;29;20158;-91
2021/12/28 04:03:31;;;;;;;18.00;6.85;;;;;;;-15.04;67.03;100063.53;4900464;29;20044;-92
2021/12/28 04:05:59;;;;;;;14.82;6.85;;;;;;;-14.98;66.76;100053.44;4917703;29;20088;-91
2021/12/28 04:08:27;;;;;;;13.82;5.25;;;;;;;-15.11;67.26;100060.69;4869954;29;20135;-90
2021/12/28 04:11:01;;;;;;;10.53;6.87;;;;;;;-15.14;67.87;100063.16;4871560;29;20048;-85
2021/12/28 04:13:27;;;;;;;10.70;5.95;;;;;;;-15.09;67.90;100070.16;4871653;29;20054;-86
2021/12/28 04:15:53;;;;;;;10.13;5.68;;;;;;;-15.14;67.68;100071.72;4899852;29;20087;-85
2021/12/28 04:18:20;;;;;;;21.42;6.00;;;;;;;-15.13;67.84;100070.88;4868726;29;20097;-80
2021/12/28 04:20:47;;;;;;;15.88;6.00;;;;;;;-15.06;67.95;100071.97;4900528;29;20529;-86
2021/12/28 04:23:13;;;;;;;10.50;5.68;;;;;;;-15.13;67.92;100058.06;4933197;29;20048;-88
2021/12/28 04:25:39;;;;;;;13.32;5.10;;;;;;;-15.00;67.65;100070.50;4893471;29;20086;-90
2021/12/28 04:28:05;;;;;;;11.80;5.78;;;;;;;-14.85;67.54;100075.28;4884705;29;20051;-88
2021/12/28 04:30:31;;;;;;;9.65;5.70;;;;;;;-14.86;67.01;100072.63;4900457;29;20040;-92
2021/12/28 04:32:57;;;;;;;9.05;5.07;;;;;;;-14.97;67.16;100065.47;4884867;29;20056;-88
2021/12/28 04:35:23;;;;;;;9.25;5.00;;;;;;;-14.99;67.28;100072.22;4869450;29;20079;-90
2021/12/28 04:37:49;;;;;;;12.75;6.43;;;;;;;-14.95;67.69;100081.78;4899936;29;20046;-86
2021/12/28 04:40:15;;;;;;;9.15;5.35;;;;;;;-14.92;67.48;100087.84;4869225;29;20138;-86
2021/12/28 04:42:42;;;;;;;11.75;4.50;;;;;;;-14.86;67.80;100083.75;4885674;29;20099;-84
2021/12/28 04:45:09;;;;;;;16.55;6.05;;;;;;;-14.73;67.87;100085.94;4923695;29;20526;-87
2021/12/28 04:47:35;;;;;;;10.18;5.78;;;;;;;-14.68;67.08;100083.50;4863932;29;20135;-91
2021/12/28 04:50:03;;;;;;;13.73;5.55;;;;;;;-14.61;66.32;100098.28;4918075;29;20051;-87
2021/12/28 04:52:31;;;;;;;13.20;6.35;;;;;;;-14.60;66.16;100094.88;4895050;29;20067;-82
2021/12/28 04:54:57;;;;;;;10.10;6.07;;;;;;;-14.62;66.43;100085.41;4913997;29;20044;-79
2021/12/28 04:57:23;;;;;;;9.02;5.10;;;;;;;-14.50;66.64;100093.50;4904066;29;20079;-88
2021/12/28 04:59:49;;;;;;;14.85;6.60;;;;;;;-14.49;66.03;100096.06;4886040;29;20047;-87
2021/12/28 05:02:15;;;;;;;11.55;6.55;;;;;;;-14.51;65.93;100102.91;4877496;29;20044;-88
2021/12/28 05:04:41;;;;;;;10.52;5.90;;;;;;;-14.54;65.93;100101.94;4860888;29;20051;-88
2021/12/28 05:07:07;;;;;;;7.85;4.43;;;;;;;-14.49;66.02;100096.06;4921671;29;20055;-88
2021/12/28 05:09:33;;;;;;;14.50;6.38;;;;;;;-14.35;66.14;100098.22;4891048;29;20079;-81
2021/12/28 05:11:59;;;;;;;12.98;6.90;;;;;;;-14.34;66.53;100092.25;4909695;29;20083;-86
2021/12/28 05:14:25;;;;;;;7.93;4.55;;;;;;;-14.30;66.01;100104.34;4895252;29;20062;-85
2021/12/28 05:16:51;;;;;;;17.02;5.75;;;;;;;-14.32;65.61;100113.72;4901102;29;20056;-85
2021/12/28 05:19:17;;;;;;;12.95;5.25;;;;;;;-14.40;65.32;100097.19;4933485;29;20052;-90
2021/12/28 05:21:43;;;;;;;14.48;6.38;;;;;;;-14.28;64.93;100105.28;4896115;29;20054;-82
2021/12/28 05:24:09;;;;;;;11.38;5.50;;;;;;;-14.23;64.93;100109.72;4939829;29;20507;-91
2021/12/28 05:26:35;;;;;;;15.35;5.53;;;;;;;-14.16;64.71;100105.66;4875465;29;20055;-82
2021/12/28 05:29:02;;;;;;;6.68;5.00;;;;;;;-14.20;64.71;100108.97;4938855;29;20117;-84
2021/12/28 05:31:28;;;;;;;7.53;4.35;;;;;;;-14.12;64.65;100107.50;4892811;29;20051;-81
2021/12/28 05:33:54;;;;;;;10.70;6.38;;;;;;;-14.19;64.42;100110.69;4938401;29;20533;-84
2021/12/28 05:36:21;;;;;;;9.48;5.65;;;;;;;-14.16;65.42;100110.81;4875224;29;20047;-81
2021/12/28 05:38:47;;;;;;;14.50;6.22;;;;;;;-14.07;64.77;100110.19;4905296;29;20515;-83
2021/12/28 05:41:13;;;;;;;17.25;5.43;;;;;;;-14.04;64.32;100100.91;4905778;29;20134;-90
2021/12/28 05:43:39;;;;;;;11.48;6.55;;;;;;;-13.98;64.01;100110.50;4906202;29;20110;-85
2021/12/28 05:46:05;;;;;;;22.55;6.47;;;;;;;-14.03;64.32;100102.63;4889758;29;20504;-89
2021/12/28 05:48:31;;;;;;;10.57;5.75;;;;;;;-14.04;64.34;100105.16;4906471;29;20040;-90
2021/12/28 05:50:57;;;;;;;6.97;4.40;;;;;;;-14.05;64.02;100109.44;4908897;29;20067;-87
2021/12/28 05:53:23;;;;;;;6.22;3.72;;;;;;;-14.20;64.57;100119.25;4940007;29;20052;-93
2021/12/28 05:55:49;;;;;;;8.32;4.80;;;;;;;-14.18;64.99;100122.72;4892076;29;20063;-85
2021/12/28 05:58:15;;;;;;;5.40;3.72;;;;;;;-14.11;64.88;100124.66;4905457;29;20086;-88
2021/12/28 06:00:41;;;;;;;6.10;3.67;;;;;;;-14.24;65.03;100113.13;4921840;29;20047;-89
2021/12/28 06:03:07;;;;;;;8.45;5.50;;;;;;;-14.09;64.98;100112.75;4889740;29;20209;-84
2021/12/28 06:05:33;;;;;;;8.32;4.20;;;;;;;-14.08;65.05;100118.75;4890144;29;20067;-92
2021/12/28 06:08:00;;;;;;;8.57;4.78;;;;;;;-13.98;65.10;100121.66;4904855;29;20040;-85
2021/12/28 06:10:25;;;;;;;5.35;3.50;;;;;;;-13.90;64.86;100119.31;4940008;29;20098;-86
2021/12/28 06:12:52;;;;;;;12.52;5.25;;;;;;;-13.78;64.72;100119.66;4906744;29;20047;-79
2021/12/28 06:15:18;;;;;;;10.85;6.32;;;;;;;-13.63;64.91;100116.66;4922154;29;20131;-88
2021/12/28 06:17:44;;;;;;;16.13;6.88;;;;;;;-13.49;64.34;100123.09;4906749;29;20126;-84
2021/12/28 06:20:10;;;;;;;10.88;4.55;;;;;;;-13.59;64.21;100117.63;4920960;29;20048;-82
2021/12/28 06:22:36;;;;;;;11.70;6.07;;;;;;;-13.33;64.50;100118.38;4937418;29;20055;-81
2021/12/28 06:25:03;;;;;;;4.00;2.58;;;;;;;-13.32;63.96;100109.81;4894037;29;20067;-84
2021/12/28 06:27:30;;;;;;;5.68;3.75;;;;;;;-13.31;65.05;100111.56;4886735;29;20054;-83
2021/12/28 06:29:55;;;;;;;6.68;3.60;;;;;;;-13.37;64.28;100121.69;4901523;29;20039;-81
2021/12/28 06:32:21;;;;;;;16.58;5.85;;;;;;;-13.40;64.40;100116.47;4903086;29;20103;-86
2021/12/28 06:34:47;;;;;;;4.40;2.40;;;;;;;-13.38;64.97;100125.97;4929510;29;20066;-83
2021/12/28 06:37:13;;;;;;;8.68;4.78;;;;;;;-13.36;64.66;100114.00;4908389;29;20131;-81
2021/12/28 06:39:39;;;;;;;7.43;4.82;;;;;;;-13.27;64.12;100124.56;4905601;29;20478;-83
2021/12/28 06:42:06;;;;;;;9.77;5.30;;;;;;;-13.28;63.72;100117.66;4874793;29;20131;-81
2021/12/28 06:44:31;;;;;;;9.93;5.68;;;;;;;-13.33;63.77;100105.50;4921733;29;20067;-87
2021/12/28 06:46:57;;;;;;;5.45;4.55;;;;;;;-13.37;64.18;100108.84;4921632;29;20048;-87
2021/12/28 06:49:23;;;;;;;9.93;4.80;;;;;;;-13.30;63.96;100113.31;4891106;29;20055;-91
2021/12/28 06:51:49;;;;;;;9.90;5.40;;;;;;;-13.18;63.50;100112.75;4907055;29;20138;-92
2021/12/28 06:54:16;;;;;;;11.10;5.20;;;;;;;-13.19;63.36;100122.19;4891724;29;20086;-92
2021/12/28 06:56:42;;;;;;;9.10;5.63;;;;;;;-13.20;63.31;100120.41;4898292;29;20138;-91
2021/12/28 06:59:10;;;;;;;10.85;5.10;;;;;;;-13.13;63.85;100112.03;4892545;29;20173;-87
2021/12/28 07:01:35;;;;;;;23.55;5.22;;;;;;;-13.12;63.42;100113.78;4906210;29;20582;-86
2021/12/28 07:04:02;;;;;;;8.30;4.00;;;;;;;-13.19;63.28;100108.44;4906354;29;20075;-87
2021/12/28 07:06:28;;;;;;;10.55;4.88;;;;;;;-13.13;62.99;100106.88;4891962;29;20047;-89
2021/12/28 07:08:55;;;;;;;13.30;5.72;;;;;;;-12.97;63.09;100103.91;4923594;29;20152;-89
2021/12/28 07:11:21;;;;;;;8.73;5.63;;;;;;;-12.85;62.70;100107.63;4923182;29;20130;-88
2021/12/28 07:13:47;;;;;;;5.88;4.45;;;;;;;-13.00;62.33;100103.81;4893809;29;20044;-87
2021/12/28 07:16:13;;;;;;;7.38;4.80;;;;;;;-12.89;62.13;100105.81;4905551;29;20155;-83
2021/12/28 07:18:39;;;;;;;10.02;5.43;;;;;;;-12.95;62.67;100106.50;4872729;29;20063;-87
2021/12/28 07:21:05;;;;;;;9.27;4.95;;;;;;;-12.95;62.28;100110.78;4856868;29;20048;-85
2021/12/28 07:23:31;;;;;;;8.63;5.03;;;;;;;-12.94;62.21;100097.09;4890883;29;20101;-82
2021/12/28 07:25:57;;;;;;;8.25;4.32;;;;;;;-12.89;62.41;100108.38;4922465;29;20134;-85
2021/12/28 07:28:24;;;;;;;9.45;4.75;;;;;;;-13.01;62.25;100107.25;4921366;29;20134;-85
2021/12/28 07:30:50;;;;;;;10.88;6.05;;;;;;;-12.75;62.52;100104.44;4904330;29;20091;-86
2021/12/28 07:33:16;;;;;;;7.25;4.78;;;;;;;-12.69;61.93;100104.59;4888497;29;20487;-86
2021/12/28 07:35:42;;;;;;;10.50;5.65;;;;;;;-12.66;61.97;100106.41;4894653;29;20048;-95
2021/12/28 07:38:08;;;;;;;8.40;5.10;;;;;;;-12.75;61.61;100100.19;4876463;29;20530;-85
2021/12/28 07:40:34;;;;;;;14.93;4.35;;;;;;;-12.76;61.33;100097.56;4889871;29;20064;-93
2021/12/28 07:43:00;;;;;;;9.15;4.88;;;;;;;-12.84;61.82;100099.06;4890722;29;20051;-94
2021/12/28 07:45:26;;;;;;;10.77;5.95;;;;;;;-12.70;61.31;100112.31;4890883;29;20071;-87
2021/12/28 07:47:52;;;;;;;8.77;5.32;;;;;;;-12.52;62.25;100113.63;4889475;29;20071;-90
2021/12/28 07:50:18;;;;;;;7.82;3.47;;;;;;;-12.39;61.14;100117.38;4904375;29;20098;-86
2021/12/28 07:52:45;;;;;;;11.60;5.72;;;;;;;-12.32;60.75;100113.25;4904004;29;20138;-89
2021/12/28 07:55:11;;;;;;;8.38;4.55;;;;;;;-12.28;60.07;100123.66;4893715;29;20083;-90
2021/12/28 07:57:37;;;;;;;11.82;5.90;;;;;;;-12.38;60.23;100121.69;4891419;29;20047;-88
2021/12/28 08:00:09;;;;;;;5.63;4.43;;;;;;;-12.36;59.64;100122.59;4925043;29;20066;-87
2021/12/28 08:02:39;;;;;;;17.58;5.78;;;;;;;-12.35;60.01;100123.47;4877135;29;20143;-84
2021/12/28 08:05:06;;;;;;;9.32;5.50;;;;;;;-12.35;60.08;100126.91;4869366;29;20056;-87
2021/12/28 08:07:32;;;;;;;6.90;3.90;;;;;;;-12.32;59.77;100120.97;4868827;29;20056;-93
2021/12/28 08:09:58;;;;;;;7.75;4.47;;;;;;;-12.41;59.47;100120.75;4856449;29;20150;-89
2021/12/28 08:12:25;;;;;;;4.45;2.72;;;;;;;-12.28;59.74;100122.78;4854082;29;20535;-81
2021/12/28 08:14:51;;;;;;;10.23;5.65;;;;;;;-12.25;59.00;100123.72;4868471;29;20120;-88
2021/12/28 08:17:17;;;;;;;10.57;4.03;;;;;;;-12.16;59.06;100132.50;4855564;29;20500;-89
2021/12/28 08:19:43;;;;;;;9.52;4.30;;;;;;;-12.01;58.45;100131.16;4902525;29;20571;-88
2021/12/28 08:22:09;;;;;;;10.63;5.15;;;;;;;-12.02;58.04;100132.00;4900685;29;20052;-82
2021/12/28 08:24:35;;;;;;;7.80;5.55;;;;;;;-11.98;58.04;100126.91;4914981;29;20059;-87
2021/12/28 08:27:01;;;;;;;9.57;5.53;;;;;;;-11.86;58.15;100137.50;4853119;29;20162;-91
2021/12/28 08:29:27;;;;;;;6.30;2.65;;;;;;;-11.76;57.28;100139.44;4885524;29;20048;-89
2021/12/28 08:31:53;;;;;;;6.45;4.50;;;;;;;-11.67;57.46;100128.44;4915030;29;20076;-90
2021/12/28 08:34:19;;;;;;;6.18;3.92;;;;;;;-11.55;56.92;100133.84;4883756;29;20052;-89
2021/12/28 08:36:45;;;;;;;10.77;4.18;;;;;;;-11.68;56.58;100130.16;4915544;29;20543;-86
2021/12/28 08:39:12;;;;;;;6.95;4.18;;;;;;;-11.63;57.04;100131.09;4887386;29;20043;-89
2021/12/28 08:41:38;;;;;;;10.40;4.95;;;;;;;-11.66;56.53;100141.34;4902281;29;20122;-81
2021/12/28 08:44:04;;;;;;;6.95;4.65;;;;;;;-11.88;56.49;100121.13;4918412;29;20055;-84
2021/12/28 08:46:30;;;;;;;5.68;3.90;;;;;;;-11.83;56.70;100141.00;4874409;29;20052;-87
2021/12/28 08:48:56;;;;;;;6.82;4.10;;;;;;;-11.79;56.37;100134.19;4875566;29;20150;-83
2021/12/28 08:51:22;;;;;;;4.07;2.88;;;;;;;-11.73;56.28;100139.50;4907463;29;20067;-93
2021/12/28 08:53:48;;;;;;;6.63;4.13;;;;;;;-11.70;56.21;100149.00;4880962;29;20040;-82
2021/12/28 08:56:14;;;;;;;10.00;5.32;;;;;;;-11.43;56.83;100143.56;4944515;29;20582;-82
2021/12/28 08:58:40;;;;;;;6.82;4.43;;;;;;;-11.44;55.09;100162.47;4907296;29;20047;-84
2021/12/28 09:01:06;;;;;;;6.65;4.80;;;;;;;-11.27;55.73;100150.78;4861934;29;20054;-84
2021/12/28 09:03:32;;;;;;;7.68;4.65;;;;;;;-11.05;55.04;100150.38;4882607;29;20059;-91
2021/12/28 09:06:00;;;;;;;10.88;5.35;;;;;;;-10.98;54.97;100142.75;4876841;29;20181;-89
2021/12/28 09:08:26;;;;;;;8.75;4.63;;;;;;;-11.06;54.15;100135.72;4899773;29;20043;-93
2021/12/28 09:10:52;;;;;;;8.82;4.72;;;;;;;-11.21;53.42;100145.72;4908506;29;20047;-89
2021/12/28 09:13:19;;;;;;;16.52;6.15;;;;;;;-11.60;54.41;100145.78;4907122;29;20555;-86
2021/12/28 09:15:48;;;;;;;6.28;4.25;;;;;;;-11.65;55.08;100148.28;4939160;29;20067;-86
2021/12/28 09:18:14;;;;;;;6.50;3.95;;;;;;;-11.78;54.59;100156.56;4859190;29;20047;-79
2021/12/28 09:20:40;;;;;;;10.90;4.65;;;;;;;-11.93;55.02;100145.94;4890402;29;20048;-81
2021/12/28 09:23:10;;;;;;;7.82;4.53;;;;;;;-12.05;55.17;100142.22;4875911;29;20047;-93
2021/12/28 09:25:36;;;;;;;8.35;4.75;;;;;;;-12.28;55.50;100139.13;4889629;29;20071;-86
2021/12/28 09:28:03;;;;;;;6.95;4.53;;;;;;;-12.12;55.82;100145.50;4898773;29;20044;-93
2021/12/28 09:30:31;;;;;;;7.30;4.30;;;;;;;-12.17;55.57;100131.66;4926580;29;20088;-90
2021/12/28 09:32:56;;;;;;;7.30;3.88;;;;;;;-12.07;54.99;100133.63;4945540;29;20047;-84
2021/12/28 09:35:22;;;;;;;7.10;4.13;;;;;;;-12.06;54.26;100125.03;4895864;29;20056;-82
2021/12/28 09:37:48;;;;;;;10.15;5.63;;;;;;;-11.90;55.29;100141.72;4907710;29;20039;-89
2021/12/28 09:40:14;;;;;;;10.88;5.40;;;;;;;-11.63;55.38;100151.75;4892753;29;20044;-86
2021/12/28 09:42:42;;;;;;;9.43;4.82;;;;;;;-11.58;54.17;100152.72;4925680;29;20526;-90
2021/12/28 09:45:12;;;;;;;10.05;5.05;;;;;;;-11.72;54.08;100145.53;4893424;29;20044;-82
2021/12/28 09:47:38;;;;;;;;;;;;;;;-11.72;54.14;100153.25;4878794;29;20047;-84
2021/12/28 09:50:04;;;;;;;5.90;4.00;;;;;;;-12.00;53.93;100138.06;4954259;29;19922;-84
2021/12/28 09:52:30;;;;;;;6.80;4.50;;;;;;;-11.48;56.20;100163.22;4922831;29;20138;-84
2021/12/28 09:54:57;;;;;;;11.07;4.38;;;;;;;-11.32;54.20;100158.44;4938965;29;20052;-87
2021/12/28 09:57:22;;;;;;;10.00;4.93;;;;;;;-11.40;53.70;100164.25;4921839;29;20046;-87
2021/12/28 09:59:48;;;;;;;8.75;4.53;;;;;;;-11.50;53.29;100152.91;4871818;29;20071;-79
2021/12/28 10:02:15;;;;;;;9.75;5.03;;;;;;;-11.62;53.25;100155.19;4920834;29;20044;-82
2021/12/28 10:05:04;;;;;;;9.32;4.40;;;;;;;-12.04;53.23;100162.00;4921246;29;20043;-80
2021/12/28 10:07:33;;;;;;;10.45;4.60;;;;;;;-12.16;53.57;100168.59;4922055;29;20051;-83
2021/12/28 10:09:59;;;;;;;11.20;4.95;;;;;;;-12.44;54.35;100161.91;4905613;29;20048;-80
2021/12/28 10:12:45;;;;;;;7.45;3.97;;;;;;;-12.58;54.40;100170.13;4889610;29;20414;-80
2021/12/28 10:15:19;;;;;;;9.65;4.95;;;;;;;-12.79;54.93;100164.41;4921260;29;20055;-82
2021/12/28 10:17:49;;;;;;;8.00;4.68;;;;;;;-12.97;55.00;100164.81;4874196;29;20507;-81
2021/12/28 10:20:19;;;;;;;;;;;;;;;-13.09;54.85;100182.47;4891353;29;20495;-80
2021/12/28 10:22:48;;;;;;;9.20;3.95;;;;;;;-13.18;55.24;100190.78;4938682;29;19926;-82
2021/12/28 10:25:19;;;;;;;4.03;2.70;;;;;;;-13.29;56.13;100203.38;4923935;29;20047;-81
2021/12/28 10:27:53;;;;;;;9.32;5.20;;;;;;;-13.52;56.20;100189.84;4906681;29;20055;-83
2021/12/28 10:30:26;;;;;;;9.93;5.13;;;;;;;-13.49;56.72;100194.22;4922268;29;20574;-80
2021/12/28 10:32:57;;;;;;;16.00;6.28;;;;;;;-13.41;56.84;100212.44;4872232;29;20515;-86
2021/12/28 10:35:27;;;;;;;7.38;3.78;;;;;;;-13.47;56.18;100203.69;4886893;29;20067;-85
2021/12/28 10:37:58;;;;;;;9.20;4.00;;;;;;;-13.54;56.20;100201.81;4902877;29;20040;-80
2021/12/28 10:40:33;;;;;;;16.02;6.38;;;;;;;-13.53;56.54;100210.38;4886261;29;20150;-81
2021/12/28 10:43:06;;;;;;;6.40;4.47;;;;;;;-13.74;56.33;100197.72;4886544;29;20178;-79
2021/12/28 10:45:45;;;;;;;5.82;4.30;;;;;;;-13.56;56.32;100211.16;4871097;29;20052;-81
2021/12/28 10:48:15;;;;;;;10.82;5.35;;;;;;;-13.67;56.47;100199.66;4886663;29;20519;-82
2021/12/28 10:50:43;;;;;;;11.38;5.28;;;;;;;-13.72;56.56;100229.50;4886467;29;20087;-80
2021/12/28 10:53:18;;;;;;;9.82;6.13;;;;;;;-13.74;56.95;100210.59;4855519;29;20135;-79
2021/12/28 10:55:47;;;;;;;8.73;5.15;;;;;;;-13.73;57.21;100238.91;4916693;29;20500;-79
2021/12/28 10:58:25;;;;;;;11.57;5.10;;;;;;;-13.80;56.69;100233.50;4901573;29;20058;-80
2021/12/28 11:00:51;;;;;;;8.90;4.70;;;;;;;-13.79;56.79;100225.00;4855449;29;20460;-80
2021/12/28 11:03:26;;;;;;;14.10;5.22;;;;;;;-13.68;56.97;100230.47;4885897;29;20055;-81
2021/12/28 11:05:53;;;;;;;12.27;6.13;;;;;;;-13.83;57.20;100229.16;4886185;29;20549;-79
2021/12/28 11:08:20;;;;;;;8.90;4.68;;;;;;;-13.97;57.24;100227.84;4885291;29;20098;-80
2021/12/28 11:10:48;;;;;;;9.30;5.22;;;;;;;-14.08;57.67;100240.34;4854645;29;20044;-79
2021/12/28 11:13:14;;;;;;;12.10;6.22;;;;;;;-13.91;57.82;100235.78;4870183;29;20146;-81
2021/12/28 11:15:45;;;;;;;9.90;5.93;;;;;;;-14.00;57.64;100241.47;4885227;29;20146;-83